Time,TemperatureF,DewpointF,PressureIn,WindDirection,WindDirectionDegrees,WindSpeedMPH,WindSpeedGustMPH,Humidity,HourlyPrecipIn,Conditions,Clouds,dailyrainin,SoftwareType,DateUTC
2013-05-26 00:01:00,67.5,53.1,29.97,ENE,68,0.0,0.0,60,0.00,,---,0.00,VWS V14.01,2013-05-26 04:01:00,
2013-05-26 00:02:00,67.5,53.6,29.97,North,0,1.6,2.9,61,0.00,,---,0.00,VWS V14.01,2013-05-26 04:02:00,
2013-05-26 00:07:00,67.3,53.4,29.97,North,0,0.0,0.0,61,0.00,,---,0.00,VWS V14.01,2013-05-26 04:07:00,
2013-05-26 00:12:00,67.1,53.2,29.97,NNE,22,0.0,0.0,61,0.00,,---,0.00,VWS V14.01,2013-05-26 04:12:00,
2013-05-26 00:17:00,66.9,53.5,29.97,NE,45,0.9,0.9,62,0.00,,---,0.00,VWS V14.01,2013-05-26 04:17:00,
2013-05-26 00:22:00,66.9,53.9,29.97,WNW,292,0.0,0.0,63,0.00,,---,0.00,VWS V14.01,2013-05-26 04:22:00,
2013-05-26 00:27:00,66.9,53.9,29.97,NE,45,0.0,0.0,63,0.00,,---,0.00,VWS V14.01,2013-05-26 04:27:00,
2013-05-26 00:32:00,66.9,53.9,29.97,NE,45,0.0,0.0,63,0.00,,---,0.00,VWS V14.01,2013-05-26 04:32:00,
2013-05-26 00:37:00,66.7,53.8,29.97,East,90,2.0,2.0,63,0.00,,---,0.00,VWS V14.01,2013-05-26 04:37:00,
2013-05-26 00:42:00,66.4,53.8,29.97,ESE,112,0.0,1.1,64,0.00,,---,0.00,VWS V14.01,2013-05-26 04:42:00,
2013-05-26 00:47:00,65.8,53.3,29.97,East,90,0.0,0.0,64,0.00,,---,0.00,VWS V14.01,2013-05-26 04:47:00,
2013-05-26 00:52:00,65.8,53.3,29.97,NE,45,0.0,0.0,64,0.00,,---,0.00,VWS V14.01,2013-05-26 04:52:00,
2013-05-26 00:57:00,65.8,53.8,29.97,NE,45,0.0,0.0,65,0.00,,---,0.00,VWS V14.01,2013-05-26 04:57:00,
2013-05-26 01:02:00,65.7,53.6,29.97,NE,45,0.0,0.0,65,0.00,,---,0.00,VWS V14.01,2013-05-26 05:02:00,
2013-05-26 01:07:00,65.3,53.2,29.97,NE,45,0.0,0.0,65,0.00,,---,0.00,VWS V14.01,2013-05-26 05:07:00,
2013-05-26 01:12:00,65.1,53.1,29.94,NE,45,0.0,0.0,65,0.00,,---,0.00,VWS V14.01,2013-05-26 05:12:00,
2013-05-26 01:17:00,64.8,53.2,29.94,ENE,68,0.0,0.0,66,0.00,,---,0.00,VWS V14.01,2013-05-26 05:17:00,
2013-05-26 01:22:00,64.8,53.2,29.94,NE,45,0.0,0.0,66,0.00,,---,0.00,VWS V14.01,2013-05-26 05:22:00,
2013-05-26 01:27:00,64.8,53.6,29.94,East,90,0.0,0.0,67,0.00,,---,0.00,VWS V14.01,2013-05-26 05:27:00,
2013-05-26 01:32:00,64.6,53.4,29.94,NNE,22,0.0,0.0,67,0.00,,---,0.00,VWS V14.01,2013-05-26 05:32:00,
2013-05-26 01:37:00,64.8,53.6,29.94,SE,135,0.0,0.0,67,0.00,,---,0.00,VWS V14.01,2013-05-26 05:37:00,
2013-05-26 01:42:00,64.8,54.0,29.94,ENE,68,1.1,1.1,68,0.00,,---,0.00,VWS V14.01,2013-05-26 05:42:00,
2013-05-26 01:47:00,64.4,53.6,29.94,NE,45,0.0,0.0,68,0.00,,---,0.00,VWS V14.01,2013-05-26 05:47:00,
2013-05-26 01:52:00,64.2,53.5,29.94,ENE,68,0.0,0.0,68,0.00,,---,0.00,VWS V14.01,2013-05-26 05:52:00,
2013-05-26 01:57:00,63.9,53.1,29.94,ENE,68,0.0,0.0,68,0.00,,---,0.00,VWS V14.01,2013-05-26 05:57:00,
2013-05-26 02:02:00,63.7,53.3,29.94,ENE,68,0.0,0.0,69,0.00,,---,0.00,VWS V14.01,2013-05-26 06:02:00,
2013-05-26 02:07:00,63.5,53.2,29.94,ENE,68,0.0,0.0,69,0.00,,---,0.00,VWS V14.01,2013-05-26 06:07:00,
2013-05-26 02:12:00,63.1,53.2,29.94,ENE,68,0.0,0.0,70,0.00,,---,0.00,VWS V14.01,2013-05-26 06:12:00,
2013-05-26 02:17:00,62.6,52.7,29.94,ENE,68,0.0,0.0,70,0.00,,---,0.00,VWS V14.01,2013-05-26 06:17:00,
2013-05-26 02:22:00,62.4,52.9,29.94,ENE,68,0.0,0.0,71,0.00,,---,0.00,VWS V14.01,2013-05-26 06:22:00,
2013-05-26 02:27:00,62.4,52.9,29.94,ENE,68,0.0,0.0,71,0.00,,---,0.00,VWS V14.01,2013-05-26 06:27:00,
2013-05-26 02:32:00,62.2,53.1,29.94,ENE,68,0.0,0.0,72,0.00,,---,0.00,VWS V14.01,2013-05-26 06:32:00,
2013-05-26 02:38:00,62.1,52.9,29.94,ENE,68,0.0,0.0,72,0.00,,---,0.00,VWS V14.01,2013-05-26 06:38:00,
2013-05-26 02:43:00,61.9,53.1,29.94,ENE,68,0.0,0.0,73,0.00,,---,0.00,VWS V14.01,2013-05-26 06:43:00,
2013-05-26 02:48:00,61.9,53.5,29.94,ENE,68,0.0,0.0,74,0.00,,---,0.00,VWS V14.01,2013-05-26 06:48:00,
2013-05-26 02:53:00,61.7,53.3,29.94,ENE,68,0.0,0.0,74,0.00,,---,0.00,VWS V14.01,2013-05-26 06:53:00,
2013-05-26 02:58:00,61.3,53.0,29.94,ENE,68,0.0,0.0,74,0.00,,---,0.00,VWS V14.01,2013-05-26 06:58:00,
2013-05-26 03:03:00,61.2,53.2,29.94,ENE,68,0.0,0.0,75,0.00,,---,0.00,VWS V14.01,2013-05-26 07:03:00,
2013-05-26 03:08:00,61.0,53.0,29.94,ENE,68,0.0,0.0,75,0.00,,---,0.00,VWS V14.01,2013-05-26 07:08:00,
2013-05-26 03:13:00,60.8,53.2,29.94,ENE,68,0.0,0.0,76,0.00,,---,0.00,VWS V14.01,2013-05-26 07:13:00,
2013-05-26 03:18:00,60.6,53.4,29.94,ENE,68,0.0,0.0,77,0.00,,---,0.00,VWS V14.01,2013-05-26 07:18:00,
2013-05-26 03:23:00,60.6,53.4,29.94,ENE,68,0.0,0.0,77,0.00,,---,0.00,VWS V14.01,2013-05-26 07:23:00,
2013-05-26 03:28:00,60.4,53.2,29.94,ENE,68,0.0,0.0,77,0.00,,---,0.00,VWS V14.01,2013-05-26 07:28:00,
2013-05-26 03:33:00,60.4,53.6,29.94,ENE,68,0.0,0.0,78,0.00,,---,0.00,VWS V14.01,2013-05-26 07:33:00,
2013-05-26 03:38:00,60.3,53.4,29.94,ENE,68,0.0,0.0,78,0.00,,---,0.00,VWS V14.01,2013-05-26 07:38:00,
2013-05-26 03:43:00,60.3,53.4,29.94,ENE,68,0.0,0.0,78,0.00,,---,0.00,VWS V14.01,2013-05-26 07:43:00,
2013-05-26 03:48:00,60.1,53.6,29.94,ENE,68,0.0,0.0,79,0.00,,---,0.00,VWS V14.01,2013-05-26 07:48:00,
2013-05-26 03:53:00,60.1,53.6,29.94,ENE,68,0.0,0.0,79,0.00,,---,0.00,VWS V14.01,2013-05-26 07:53:00,
2013-05-26 03:58:00,59.9,53.7,29.94,ENE,68,0.0,0.0,80,0.00,,---,0.00,VWS V14.01,2013-05-26 07:58:00,
2013-05-26 04:03:00,59.9,53.7,29.94,ENE,68,0.0,0.0,80,0.00,,---,0.00,VWS V14.01,2013-05-26 08:03:00,
2013-05-26 04:08:00,59.7,53.5,29.94,ENE,68,0.0,0.0,80,0.00,,---,0.00,VWS V14.01,2013-05-26 08:08:00,
2013-05-26 04:13:00,59.5,53.7,29.94,ENE,68,0.0,0.0,81,0.00,,---,0.00,VWS V14.01,2013-05-26 08:13:00,
2013-05-26 04:18:00,59.4,53.5,29.94,ENE,68,0.0,0.0,81,0.00,,---,0.00,VWS V14.01,2013-05-26 08:18:00,
2013-05-26 04:23:00,59.7,53.9,29.94,East,90,0.0,0.0,81,0.00,,---,0.00,VWS V14.01,2013-05-26 08:23:00,
2013-05-26 04:28:00,59.5,53.7,29.91,East,90,0.0,0.0,81,0.00,,---,0.00,VWS V14.01,2013-05-26 08:28:00,
2013-05-26 04:33:00,59.4,53.9,29.91,East,90,0.0,0.0,82,0.00,,---,0.00,VWS V14.01,2013-05-26 08:33:00,
2013-05-26 04:38:00,59.4,53.9,29.91,East,90,0.0,0.0,82,0.00,,---,0.00,VWS V14.01,2013-05-26 08:38:00,
2013-05-26 04:43:00,59.2,53.7,29.91,East,90,0.0,0.0,82,0.00,,---,0.00,VWS V14.01,2013-05-26 08:43:00,
2013-05-26 04:48:00,59.0,53.5,29.91,East,90,0.0,0.0,82,0.00,,---,0.00,VWS V14.01,2013-05-26 08:48:00,
2013-05-26 04:53:00,59.0,53.8,29.91,East,90,0.0,0.0,83,0.00,,---,0.00,VWS V14.01,2013-05-26 08:53:00,
2013-05-26 04:58:00,58.8,53.7,29.91,East,90,0.0,0.0,83,0.00,,---,0.00,VWS V14.01,2013-05-26 08:58:00,
2013-05-26 05:03:00,59.2,54.0,29.91,East,90,0.0,0.0,83,0.00,,---,0.00,VWS V14.01,2013-05-26 09:03:00,
2013-05-26 05:08:00,59.0,54.2,29.91,East,90,0.0,0.0,84,0.00,,---,0.00,VWS V14.01,2013-05-26 09:08:00,
2013-05-26 05:13:00,58.8,54.0,29.91,East,90,0.0,0.0,84,0.00,,---,0.00,VWS V14.01,2013-05-26 09:13:00,
2013-05-26 05:18:00,58.8,54.0,29.91,East,90,0.0,0.0,84,0.00,,---,0.00,VWS V14.01,2013-05-26 09:18:00,
2013-05-26 05:23:00,58.6,53.8,29.91,East,90,0.0,0.0,84,0.00,,---,0.00,VWS V14.01,2013-05-26 09:23:00,
2013-05-26 05:28:00,58.6,54.2,29.94,East,90,0.0,0.0,85,0.00,,---,0.00,VWS V14.01,2013-05-26 09:28:00,
2013-05-26 05:33:00,58.6,54.2,29.94,East,90,0.0,0.0,85,0.00,,---,0.00,VWS V14.01,2013-05-26 09:33:00,
2013-05-26 05:38:00,58.5,54.0,29.94,East,90,0.0,0.0,85,0.00,,---,0.00,VWS V14.01,2013-05-26 09:38:00,
2013-05-26 05:43:00,58.5,54.0,29.94,East,90,0.0,0.0,85,0.00,,---,0.00,VWS V14.01,2013-05-26 09:43:00,
2013-05-26 05:48:00,58.5,54.3,29.94,East,90,0.0,0.0,86,0.00,,---,0.00,VWS V14.01,2013-05-26 09:48:00,
2013-05-26 05:53:00,58.5,54.3,29.94,East,90,0.0,0.0,86,0.00,,---,0.00,VWS V14.01,2013-05-26 09:53:00,
2013-05-26 05:58:00,58.5,54.3,29.94,East,90,0.0,0.0,86,0.00,,---,0.00,VWS V14.01,2013-05-26 09:58:00,
2013-05-26 06:03:00,58.3,54.1,29.94,East,90,0.0,0.0,86,0.00,,---,0.00,VWS V14.01,2013-05-26 10:03:00,
2013-05-26 06:08:00,58.5,54.3,29.94,East,90,0.0,0.0,86,0.00,,---,0.00,VWS V14.01,2013-05-26 10:08:00,
2013-05-26 06:13:00,58.5,54.6,29.94,East,90,0.0,0.0,87,0.00,,---,0.00,VWS V14.01,2013-05-26 10:13:00,
2013-05-26 06:18:00,58.3,54.4,29.94,East,90,0.0,0.0,87,0.00,,---,0.00,VWS V14.01,2013-05-26 10:18:00,
2013-05-26 06:23:00,58.1,54.3,29.94,East,90,0.0,0.0,87,0.00,,---,0.00,VWS V14.01,2013-05-26 10:23:00,
2013-05-26 06:28:00,58.1,54.3,29.94,East,90,0.0,0.0,87,0.00,,---,0.00,VWS V14.01,2013-05-26 10:28:00,
2013-05-26 06:33:00,58.1,54.3,29.94,East,90,0.0,0.0,87,0.00,,---,0.00,VWS V14.01,2013-05-26 10:33:00,
2013-05-26 06:38:00,58.3,54.8,29.94,East,90,0.0,0.0,88,0.00,,---,0.00,VWS V14.01,2013-05-26 10:38:00,
2013-05-26 06:43:00,58.1,54.6,29.94,East,90,0.0,0.0,88,0.00,,---,0.00,VWS V14.01,2013-05-26 10:43:00,
2013-05-26 06:48:00,58.3,54.8,29.94,East,90,0.0,0.0,88,0.00,,---,0.00,VWS V14.01,2013-05-26 10:48:00,
2013-05-26 06:53:00,58.5,55.2,29.94,East,90,0.0,0.0,89,0.00,,---,0.00,VWS V14.01,2013-05-26 10:53:00,
2013-05-26 06:58:00,58.6,55.4,29.94,East,90,0.0,0.0,89,0.00,,---,0.00,VWS V14.01,2013-05-26 10:58:00,
2013-05-26 07:03:00,58.8,55.6,29.94,East,90,0.0,0.0,89,0.00,,---,0.00,VWS V14.01,2013-05-26 11:03:00,
2013-05-26 07:08:00,59.0,55.8,29.94,East,90,0.0,0.0,89,0.00,,---,0.00,VWS V14.01,2013-05-26 11:08:00,
2013-05-26 07:13:00,59.4,56.1,29.97,East,90,0.0,0.0,89,0.00,,---,0.00,VWS V14.01,2013-05-26 11:13:00,
2013-05-26 07:18:00,59.7,56.8,29.97,East,90,0.0,0.0,90,0.00,,---,0.00,VWS V14.01,2013-05-26 11:18:00,
2013-05-26 07:23:00,59.9,57.0,29.97,East,90,0.0,0.0,90,0.00,,---,0.00,VWS V14.01,2013-05-26 11:23:00,
2013-05-26 07:28:00,60.3,57.3,29.94,East,90,0.0,0.0,90,0.00,,---,0.00,VWS V14.01,2013-05-26 11:28:00,
2013-05-26 07:33:00,60.6,58.0,29.94,East,90,0.0,0.0,91,0.00,,---,0.00,VWS V14.01,2013-05-26 11:33:00,
2013-05-26 07:38:00,61.3,58.7,29.94,East,90,0.0,0.0,91,0.00,,---,0.00,VWS V14.01,2013-05-26 11:38:00,
2013-05-26 07:43:00,61.9,59.2,29.94,East,90,0.0,0.0,91,0.00,,---,0.00,VWS V14.01,2013-05-26 11:43:00,
2013-05-26 07:48:00,62.4,59.8,29.94,East,90,0.0,0.0,91,0.00,,---,0.00,VWS V14.01,2013-05-26 11:48:00,
2013-05-26 07:53:00,63.1,60.5,29.94,East,90,0.0,0.0,91,0.00,,---,0.00,VWS V14.01,2013-05-26 11:53:00,
2013-05-26 07:58:00,63.9,61.2,29.94,East,90,0.0,0.0,91,0.00,,---,0.00,VWS V14.01,2013-05-26 11:58:00,
2013-05-26 08:03:00,64.9,61.9,29.94,East,90,0.0,0.0,90,0.00,,---,0.00,VWS V14.01,2013-05-26 12:03:00,
2013-05-26 08:08:00,68.0,65.3,29.94,NNE,22,0.0,0.0,91,0.00,,---,0.00,VWS V14.01,2013-05-26 12:08:00,
2013-05-26 08:14:00,71.1,68.3,29.97,NNE,22,0.0,0.0,91,0.00,,---,0.00,VWS V14.01,2013-05-26 12:14:00,
2013-05-26 08:19:00,73.2,69.1,29.97,NNE,22,0.0,0.0,87,0.00,,---,0.00,VWS V14.01,2013-05-26 12:19:00,
2013-05-26 08:24:00,75.7,67.6,29.97,NW,315,0.0,2.2,76,0.00,,---,0.00,VWS V14.01,2013-05-26 12:24:00,
2013-05-26 08:29:00,77.9,65.6,29.97,NNE,22,1.3,2.0,66,0.00,,---,0.00,VWS V14.01,2013-05-26 12:29:00,
2013-05-26 08:34:00,78.8,61.8,29.97,NNE,22,3.1,3.1,56,0.00,,---,0.00,VWS V14.01,2013-05-26 12:34:00,
2013-05-26 08:39:00,80.1,62.5,29.97,North,0,0.0,1.1,55,0.00,,---,0.00,VWS V14.01,2013-05-26 12:39:00,
2013-05-26 08:44:00,82.0,61.6,29.97,North,0,0.9,2.0,50,0.00,,---,0.00,VWS V14.01,2013-05-26 12:44:00,
2013-05-26 08:49:00,82.6,60.3,29.97,NNE,22,1.6,3.1,47,0.00,,---,0.00,VWS V14.01,2013-05-26 12:49:00,
2013-05-26 08:54:00,82.9,56.2,29.97,NNW,338,3.8,4.9,40,0.00,,---,0.00,VWS V14.01,2013-05-26 12:54:00,
2013-05-26 08:59:00,82.4,55.7,29.97,WSW,248,3.4,4.7,40,0.00,,---,0.00,VWS V14.01,2013-05-26 12:59:00,
2013-05-26 09:04:00,82.4,55.0,29.97,East,90,2.7,2.9,39,0.00,,---,0.00,VWS V14.01,2013-05-26 13:04:00,
2013-05-26 09:09:00,83.5,55.9,29.97,ESE,112,4.9,4.9,39,0.00,,---,0.00,VWS V14.01,2013-05-26 13:09:00,
2013-05-26 09:14:00,83.7,56.1,29.97,NNW,338,2.5,3.8,39,0.00,,---,0.00,VWS V14.01,2013-05-26 13:14:00,
2013-05-26 09:19:00,84.6,56.9,29.97,NNE,22,2.7,2.7,39,0.00,,---,0.00,VWS V14.01,2013-05-26 13:19:00,
2013-05-26 09:24:00,85.3,57.5,29.97,NE,45,4.0,6.3,39,0.00,,---,0.00,VWS V14.01,2013-05-26 13:24:00,
2013-05-26 09:29:00,86.0,56.0,29.97,NW,315,2.9,3.1,36,0.00,,---,0.00,VWS V14.01,2013-05-26 13:29:00,
2013-05-26 09:34:00,84.7,53.3,29.97,NE,45,3.6,3.6,34,0.00,,---,0.00,VWS V14.01,2013-05-26 13:34:00,
2013-05-26 09:39:00,85.5,55.5,29.97,ENE,68,3.4,3.6,36,0.00,,---,0.00,VWS V14.01,2013-05-26 13:39:00,
2013-05-26 09:44:00,86.4,54.7,29.97,NE,45,1.6,2.2,34,0.00,,---,0.00,VWS V14.01,2013-05-26 13:44:00,
2013-05-26 09:49:00,86.0,54.4,29.97,ENE,68,1.3,1.3,34,0.00,,---,0.00,VWS V14.01,2013-05-26 13:49:00,
2013-05-26 09:54:00,85.8,53.4,29.97,North,0,2.9,4.0,33,0.00,,---,0.00,VWS V14.01,2013-05-26 13:54:00,
2013-05-26 09:59:00,86.7,55.0,29.97,SE,135,2.9,6.5,34,0.00,,---,0.00,VWS V14.01,2013-05-26 13:59:00,
2013-05-26 10:04:00,88.2,55.5,29.97,NE,45,2.9,2.9,33,0.00,,---,0.00,VWS V14.01,2013-05-26 14:04:00,
2013-05-26 10:09:00,89.2,55.5,29.97,NE,45,1.3,2.5,32,0.00,,---,0.00,VWS V14.01,2013-05-26 14:09:00,
2013-05-26 10:14:00,89.2,55.5,29.97,East,90,3.6,4.9,32,0.00,,---,0.00,VWS V14.01,2013-05-26 14:14:00,
2013-05-26 10:19:00,89.8,55.1,29.97,East,90,1.3,1.6,31,0.00,,---,0.00,VWS V14.01,2013-05-26 14:19:00,
2013-05-26 10:24:00,89.8,54.2,29.97,ENE,68,3.4,3.4,30,0.00,,---,0.00,VWS V14.01,2013-05-26 14:24:00,
2013-05-26 10:29:00,89.6,54.1,29.97,NE,45,3.1,3.6,30,0.00,,---,0.00,VWS V14.01,2013-05-26 14:29:00,
2013-05-26 10:34:00,89.1,53.6,29.97,West,270,2.2,4.0,30,0.00,,---,0.00,VWS V14.01,2013-05-26 14:34:00,
2013-05-26 10:39:00,89.4,53.9,29.97,WSW,248,1.3,2.5,30,0.00,,---,0.00,VWS V14.01,2013-05-26 14:39:00,
2013-05-26 10:44:00,90.7,55.9,30.00,North,0,3.8,4.3,31,0.00,,---,0.00,VWS V14.01,2013-05-26 14:44:00,
2013-05-26 10:49:00,91.4,54.7,30.00,North,0,4.7,5.8,29,0.00,,---,0.00,VWS V14.01,2013-05-26 14:49:00,
2013-05-26 10:54:00,91.0,54.4,30.00,NNW,338,2.5,3.6,29,0.00,,---,0.00,VWS V14.01,2013-05-26 14:54:00,
2013-05-26 10:59:00,90.9,54.2,30.00,NNE,22,4.3,5.8,29,0.00,,---,0.00,VWS V14.01,2013-05-26 14:59:00,
2013-05-26 11:04:00,91.0,54.4,30.00,NW,315,2.0,2.7,29,0.00,,---,0.00,VWS V14.01,2013-05-26 15:04:00,
2013-05-26 11:09:00,91.6,53.9,30.00,NNE,22,8.5,8.5,28,0.00,,---,0.00,VWS V14.01,2013-05-26 15:09:00,
2013-05-26 11:14:00,91.2,53.6,29.97,North,0,0.9,2.9,28,0.00,,---,0.00,VWS V14.01,2013-05-26 15:14:00,
2013-05-26 11:19:00,90.3,53.8,29.97,ESE,112,6.3,6.3,29,0.00,,---,0.00,VWS V14.01,2013-05-26 15:19:00,
2013-05-26 11:24:00,90.9,53.3,29.97,East,90,2.7,4.7,28,0.00,,---,0.00,VWS V14.01,2013-05-26 15:24:00,
2013-05-26 11:29:00,91.4,53.8,29.97,ESE,112,3.1,4.7,28,0.00,,---,0.00,VWS V14.01,2013-05-26 15:29:00,
2013-05-26 11:34:00,92.1,54.4,29.97,North,0,3.1,6.3,28,0.00,,---,0.00,VWS V14.01,2013-05-26 15:34:00,
2013-05-26 11:39:00,91.8,54.0,29.97,NNW,338,2.9,2.9,28,0.00,,---,0.00,VWS V14.01,2013-05-26 15:39:00,
2013-05-26 11:44:00,92.3,54.5,29.97,NNE,22,3.1,4.5,28,0.00,,---,0.00,VWS V14.01,2013-05-26 15:44:00,
2013-05-26 11:49:00,92.5,53.7,29.97,North,0,5.4,5.4,27,0.00,,---,0.00,VWS V14.01,2013-05-26 15:49:00,
2013-05-26 11:54:00,92.3,54.5,29.97,SW,225,2.2,2.2,28,0.00,,---,0.00,VWS V14.01,2013-05-26 15:54:00,
2013-05-26 11:59:00,93.0,55.1,29.97,NNW,338,5.4,6.3,28,0.00,,---,0.00,VWS V14.01,2013-05-26 15:59:00,
2013-05-26 12:04:00,93.2,54.3,29.97,NE,45,3.1,3.8,27,0.00,,---,0.00,VWS V14.01,2013-05-26 16:04:00,
2013-05-26 12:09:00,92.1,54.4,29.97,NNW,338,2.9,4.3,28,0.00,,---,0.00,VWS V14.01,2013-05-26 16:09:00,
2013-05-26 12:14:00,93.0,54.1,29.97,NNE,22,0.0,2.0,27,0.00,,---,0.00,VWS V14.01,2013-05-26 16:14:00,
2013-05-26 12:19:00,92.3,53.5,29.97,NE,45,2.5,4.0,27,0.00,,---,0.00,VWS V14.01,2013-05-26 16:19:00,
2013-05-26 12:24:00,91.9,54.2,29.97,East,90,4.7,4.7,28,0.00,,---,0.00,VWS V14.01,2013-05-26 16:24:00,
2013-05-26 12:30:00,92.3,54.5,29.97,East,90,3.1,5.6,28,0.00,,---,0.00,VWS V14.01,2013-05-26 16:30:00,
2013-05-26 12:35:00,91.8,53.1,29.97,East,90,3.1,4.0,27,0.00,,---,0.00,VWS V14.01,2013-05-26 16:35:00,
2013-05-26 12:40:00,91.2,51.6,29.97,SE,135,1.1,5.6,26,0.00,,---,0.00,VWS V14.01,2013-05-26 16:40:00,
2013-05-26 12:45:00,92.3,53.5,29.97,East,90,2.0,5.8,27,0.00,,---,0.00,VWS V14.01,2013-05-26 16:45:00,
2013-05-26 12:50:00,91.8,53.1,29.97,SE,135,5.4,5.4,27,0.00,,---,0.00,VWS V14.01,2013-05-26 16:50:00,
2013-05-26 12:55:00,92.1,54.4,29.97,East,90,5.6,5.6,28,0.00,,---,0.00,VWS V14.01,2013-05-26 16:55:00,
2013-05-26 13:00:00,92.1,53.4,29.97,ENE,68,2.9,4.3,27,0.00,,---,0.00,VWS V14.01,2013-05-26 17:00:00,
2013-05-26 13:05:00,92.1,52.3,29.97,ENE,68,1.6,3.1,26,0.00,,---,0.00,VWS V14.01,2013-05-26 17:05:00,
2013-05-26 13:10:00,92.1,53.4,29.97,East,90,1.3,2.5,27,0.00,,---,0.00,VWS V14.01,2013-05-26 17:10:00,
2013-05-26 13:15:00,91.9,51.1,29.97,ENE,68,2.5,2.9,25,0.00,,---,0.00,VWS V14.01,2013-05-26 17:15:00,
2013-05-26 13:20:00,92.5,53.7,29.97,East,90,6.0,6.0,27,0.00,,---,0.00,VWS V14.01,2013-05-26 17:20:00,
2013-05-26 13:25:00,92.1,53.4,29.97,ESE,112,3.4,5.6,27,0.00,,---,0.00,VWS V14.01,2013-05-26 17:25:00,
2013-05-26 13:30:00,92.5,53.7,29.97,North,0,4.3,4.9,27,0.00,,---,0.00,VWS V14.01,2013-05-26 17:30:00,
2013-05-26 13:35:00,92.7,52.8,29.97,NE,45,2.9,2.9,26,0.00,,---,0.00,VWS V14.01,2013-05-26 17:35:00,
2013-05-26 13:40:00,91.4,48.4,29.97,NW,315,2.7,6.3,23,0.00,,---,0.00,VWS V14.01,2013-05-26 17:40:00,
2013-05-26 13:45:00,91.4,51.7,29.97,NE,45,1.1,6.0,26,0.00,,---,0.00,VWS V14.01,2013-05-26 17:45:00,
2013-05-26 13:50:00,91.9,53.2,29.97,North,0,5.4,6.5,27,0.00,,---,0.00,VWS V14.01,2013-05-26 17:50:00,
2013-05-26 13:55:00,92.8,53.0,29.97,West,270,6.5,6.5,26,0.00,,---,0.00,VWS V14.01,2013-05-26 17:55:00,
2013-05-26 14:00:00,92.5,51.6,29.94,NW,315,2.0,7.2,25,0.00,,---,0.00,VWS V14.01,2013-05-26 18:00:00,
2013-05-26 14:05:00,91.9,48.9,29.94,NNW,338,1.3,1.3,23,0.00,,---,0.00,VWS V14.01,2013-05-26 18:05:00,
2013-05-26 14:10:00,91.8,52.0,29.94,ESE,112,2.9,3.6,26,0.00,,---,0.00,VWS V14.01,2013-05-26 18:10:00,
2013-05-26 14:15:00,92.3,50.3,29.97,NW,315,3.8,3.8,24,0.00,,---,0.00,VWS V14.01,2013-05-26 18:15:00,
2013-05-26 14:20:00,91.8,49.9,29.97,SE,135,2.2,4.0,24,0.00,,---,0.00,VWS V14.01,2013-05-26 18:20:00,
2013-05-26 14:25:00,92.3,50.3,29.97,ENE,68,6.5,6.5,24,0.00,,---,0.00,VWS V14.01,2013-05-26 18:25:00,
2013-05-26 14:30:00,92.5,50.5,29.94,WNW,292,3.6,4.3,24,0.00,,---,0.00,VWS V14.01,2013-05-26 18:30:00,
2013-05-26 14:35:00,92.1,50.2,29.94,NNE,22,2.0,2.0,24,0.00,,---,0.00,VWS V14.01,2013-05-26 18:35:00,
2013-05-26 14:40:00,90.9,51.3,29.94,NNE,22,1.6,2.7,26,0.00,,---,0.00,VWS V14.01,2013-05-26 18:40:00,
2013-05-26 14:45:00,90.7,50.1,29.94,NE,45,1.3,3.4,25,0.00,,---,0.00,VWS V14.01,2013-05-26 18:45:00,
2013-05-26 14:50:00,91.6,51.9,29.94,NNW,338,3.4,3.6,26,0.00,,---,0.00,VWS V14.01,2013-05-26 18:50:00,
2013-05-26 14:55:00,91.6,52.9,29.94,West,270,2.9,4.9,27,0.00,,---,0.00,VWS V14.01,2013-05-26 18:55:00,
2013-05-26 15:00:00,91.8,53.1,29.94,East,90,3.6,3.8,27,0.00,,---,0.00,VWS V14.01,2013-05-26 19:00:00,
2013-05-26 15:05:00,91.4,50.7,29.94,SE,135,1.6,3.4,25,0.00,,---,0.00,VWS V14.01,2013-05-26 19:05:00,
2013-05-26 15:10:00,89.6,50.2,29.94,NNW,338,3.8,4.0,26,0.00,,---,0.00,VWS V14.01,2013-05-26 19:10:00,
2013-05-26 15:15:00,90.9,52.3,29.94,ESE,112,2.0,2.2,27,0.00,,---,0.00,VWS V14.01,2013-05-26 19:15:00,
2013-05-26 15:20:00,91.2,52.6,29.94,NNW,338,5.6,6.5,27,0.00,,---,0.00,VWS V14.01,2013-05-26 19:20:00,
2013-05-26 15:25:00,91.6,50.8,29.94,NW,315,2.9,4.3,25,0.00,,---,0.00,VWS V14.01,2013-05-26 19:25:00,
2013-05-26 15:30:00,92.3,50.3,29.94,NNW,338,5.4,6.3,24,0.00,,---,0.00,VWS V14.01,2013-05-26 19:30:00,
2013-05-26 15:35:00,90.1,47.4,29.94,NW,315,7.2,7.2,23,0.00,,---,0.00,VWS V14.01,2013-05-26 19:35:00,
2013-05-26 15:40:00,91.0,49.3,29.94,North,0,3.6,3.6,24,0.00,,---,0.00,VWS V14.01,2013-05-26 19:40:00,
2013-05-26 15:45:00,91.6,51.9,29.91,NE,45,2.7,4.0,26,0.00,,---,0.00,VWS V14.01,2013-05-26 19:45:00,
2013-05-26 15:50:00,91.8,53.1,29.91,NNE,22,4.3,4.3,27,0.00,,---,0.00,VWS V14.01,2013-05-26 19:50:00,
2013-05-26 15:55:00,92.3,53.5,29.91,North,0,2.5,4.9,27,0.00,,---,0.00,VWS V14.01,2013-05-26 19:55:00,
2013-05-26 16:00:00,92.8,54.0,29.91,NNW,338,3.8,5.6,27,0.00,,---,0.00,VWS V14.01,2013-05-26 20:00:00,
2013-05-26 16:05:00,91.8,53.1,29.91,North,0,3.1,4.9,27,0.00,,---,0.00,VWS V14.01,2013-05-26 20:05:00,
2013-05-26 16:10:00,92.1,53.4,29.91,ENE,68,4.3,4.3,27,0.00,,---,0.00,VWS V14.01,2013-05-26 20:10:00,
2013-05-26 16:15:00,93.4,54.4,29.91,NE,45,2.2,3.1,27,0.00,,---,0.00,VWS V14.01,2013-05-26 20:15:00,
2013-05-26 16:20:00,93.2,54.3,29.91,East,90,2.5,3.8,27,0.00,,---,0.00,VWS V14.01,2013-05-26 20:20:00,
2013-05-26 16:25:00,91.6,52.9,29.91,East,90,3.1,7.4,27,0.00,,---,0.00,VWS V14.01,2013-05-26 20:25:00,
2013-05-26 16:30:00,90.1,52.7,29.91,WNW,292,5.4,5.8,28,0.00,,---,0.00,VWS V14.01,2013-05-26 20:30:00,
2013-05-26 16:35:00,87.6,51.5,29.91,NE,45,2.9,2.9,29,0.00,,---,0.00,VWS V14.01,2013-05-26 20:35:00,
2013-05-26 16:40:00,87.6,51.5,29.91,NW,315,2.5,6.5,29,0.00,,---,0.00,VWS V14.01,2013-05-26 20:40:00,
2013-05-26 16:45:00,86.2,51.1,29.91,East,90,4.0,5.6,30,0.00,,---,0.00,VWS V14.01,2013-05-26 20:45:00,
2013-05-26 16:50:00,85.5,50.5,29.91,North,0,3.1,4.0,30,0.00,,---,0.00,VWS V14.01,2013-05-26 20:50:00,
2013-05-26 16:55:00,85.8,51.7,29.91,NE,45,3.1,4.7,31,0.00,,---,0.00,VWS V14.01,2013-05-26 20:55:00,
2013-05-26 17:00:00,85.5,51.4,29.91,East,90,2.0,5.6,31,0.00,,---,0.00,VWS V14.01,2013-05-26 21:00:00,
2013-05-26 17:05:00,85.1,52.0,29.91,NE,45,3.6,7.6,32,0.00,,---,0.00,VWS V14.01,2013-05-26 21:05:00,
2013-05-26 17:10:00,85.1,52.0,29.91,NW,315,2.7,4.0,32,0.00,,---,0.00,VWS V14.01,2013-05-26 21:10:00,
2013-05-26 17:15:00,85.6,52.4,29.91,East,90,2.9,6.3,32,0.00,,---,0.00,VWS V14.01,2013-05-26 21:15:00,
2013-05-26 17:20:00,85.1,52.0,29.91,ESE,112,3.4,6.3,32,0.00,,---,0.00,VWS V14.01,2013-05-26 21:20:00,
2013-05-26 17:26:00,85.1,52.0,29.91,NW,315,6.3,6.3,32,0.00,,---,0.00,VWS V14.01,2013-05-26 21:26:00,
2013-05-26 17:31:00,85.6,52.4,29.91,ENE,68,4.0,5.4,32,0.00,,---,0.00,VWS V14.01,2013-05-26 21:31:00,
2013-05-26 17:36:00,86.2,52.9,29.91,ENE,68,2.7,4.0,32,0.00,,---,0.00,VWS V14.01,2013-05-26 21:36:00,
2013-05-26 17:41:00,85.1,52.0,29.91,NNE,22,2.5,4.9,32,0.00,,---,0.00,VWS V14.01,2013-05-26 21:41:00,
2013-05-26 17:46:00,84.0,51.0,29.91,NE,45,3.4,4.0,32,0.00,,---,0.00,VWS V14.01,2013-05-26 21:46:00,
2013-05-26 17:51:00,83.5,51.4,29.91,North,0,2.7,6.3,33,0.00,,---,0.00,VWS V14.01,2013-05-26 21:51:00,
2013-05-26 17:56:00,82.9,51.7,29.91,ESE,112,3.6,4.3,34,0.00,,---,0.00,VWS V14.01,2013-05-26 21:56:00,
2013-05-26 18:01:00,82.2,51.1,29.91,NNE,22,2.0,5.6,34,0.00,,---,0.00,VWS V14.01,2013-05-26 22:01:00,
2013-05-26 18:06:00,82.0,50.9,29.91,NE,45,2.0,3.1,34,0.00,,---,0.00,VWS V14.01,2013-05-26 22:06:00,
2013-05-26 18:11:00,81.5,51.2,29.91,ENE,68,5.8,7.4,35,0.00,,---,0.00,VWS V14.01,2013-05-26 22:11:00,
2013-05-26 18:16:00,81.3,51.8,29.91,North,0,3.1,5.4,36,0.00,,---,0.00,VWS V14.01,2013-05-26 22:16:00,
2013-05-26 18:21:00,80.8,51.4,29.91,North,0,5.8,5.8,36,0.00,,---,0.00,VWS V14.01,2013-05-26 22:21:00,
2013-05-26 18:26:00,80.1,51.5,29.91,ESE,112,6.5,6.5,37,0.00,,---,0.00,VWS V14.01,2013-05-26 22:26:00,
2013-05-26 18:31:00,79.7,51.2,29.91,NNE,22,2.7,3.8,37,0.00,,---,0.00,VWS V14.01,2013-05-26 22:31:00,
2013-05-26 18:36:00,79.7,51.9,29.91,East,90,6.0,6.0,38,0.00,,---,0.00,VWS V14.01,2013-05-26 22:36:00,
2013-05-26 18:41:00,79.2,52.1,29.91,NE,45,1.3,2.7,39,0.00,,---,0.00,VWS V14.01,2013-05-26 22:41:00,
2013-05-26 18:46:00,78.8,52.5,29.91,East,90,4.3,4.3,40,0.00,,---,0.00,VWS V14.01,2013-05-26 22:46:00,
2013-05-26 18:51:00,78.6,52.3,29.91,East,90,3.8,4.0,40,0.00,,---,0.00,VWS V14.01,2013-05-26 22:51:00,
2013-05-26 18:56:00,78.3,52.7,29.91,North,0,2.9,2.9,41,0.00,,---,0.00,VWS V14.01,2013-05-26 22:56:00,
2013-05-26 19:01:00,78.1,52.5,29.91,NW,315,2.9,3.8,41,0.00,,---,0.00,VWS V14.01,2013-05-26 23:01:00,
2013-05-26 19:06:00,77.7,52.2,29.91,NE,45,2.5,2.5,41,0.00,,---,0.00,VWS V14.01,2013-05-26 23:06:00,
2013-05-26 19:11:00,77.7,52.8,29.91,SE,135,3.4,3.4,42,0.00,,---,0.00,VWS V14.01,2013-05-26 23:11:00,
2013-05-26 19:16:00,77.4,52.5,29.91,ENE,68,2.5,3.1,42,0.00,,---,0.00,VWS V14.01,2013-05-26 23:16:00,
2013-05-26 19:21:00,77.4,52.5,29.91,ENE,68,7.2,7.2,42,0.00,,---,0.00,VWS V14.01,2013-05-26 23:21:00,
2013-05-26 19:26:00,77.0,52.2,29.91,SE,135,3.8,3.8,42,0.00,,---,0.00,VWS V14.01,2013-05-26 23:26:00,
2013-05-26 19:31:00,76.8,52.0,29.91,East,90,6.0,6.0,42,0.00,,---,0.00,VWS V14.01,2013-05-26 23:31:00,
2013-05-26 19:36:00,76.5,52.3,29.91,SE,135,2.7,3.4,43,0.00,,---,0.00,VWS V14.01,2013-05-26 23:36:00,
2013-05-26 19:41:00,76.1,52.0,29.91,ENE,68,4.3,4.3,43,0.00,,---,0.00,VWS V14.01,2013-05-26 23:41:00,
2013-05-26 19:46:00,75.7,51.7,29.91,NNW,338,7.8,7.8,43,0.00,,---,0.00,VWS V14.01,2013-05-26 23:46:00,
2013-05-26 19:51:00,75.2,51.8,29.91,NNW,338,7.6,7.6,44,0.00,,---,0.00,VWS V14.01,2013-05-26 23:51:00,
2013-05-26 19:56:00,74.8,52.1,29.91,ENE,68,2.2,3.1,45,0.00,,---,0.00,VWS V14.01,2013-05-26 23:56:00,
2013-05-26 20:01:00,74.5,51.8,29.91,East,90,3.6,4.0,45,0.00,,---,0.00,VWS V14.01,2013-05-27 00:01:00,
2013-05-26 20:06:00,74.1,52.0,29.91,ENE,68,4.0,4.0,46,0.00,,---,0.00,VWS V14.01,2013-05-27 00:06:00,
2013-05-26 20:11:00,73.8,51.7,29.94,ENE,68,1.6,4.7,46,0.00,,---,0.00,VWS V14.01,2013-05-27 00:11:00,
2013-05-26 20:16:00,73.4,51.4,29.94,SE,135,2.5,2.5,46,0.00,,---,0.00,VWS V14.01,2013-05-27 00:16:00,
2013-05-26 20:21:00,73.0,51.6,29.94,ENE,68,1.6,3.6,47,0.00,,---,0.00,VWS V14.01,2013-05-27 00:21:00,
2013-05-26 20:26:00,72.7,51.9,29.91,ENE,68,4.3,4.3,48,0.00,,---,0.00,VWS V14.01,2013-05-27 00:26:00,
2013-05-26 20:31:00,72.5,52.3,29.91,East,90,1.3,3.6,49,0.00,,---,0.00,VWS V14.01,2013-05-27 00:31:00,
2013-05-26 20:36:00,72.3,51.5,29.91,ENE,68,2.2,2.5,48,0.00,,---,0.00,VWS V14.01,2013-05-27 00:36:00,
2013-05-26 20:41:00,72.1,51.4,29.91,NE,45,5.8,6.3,48,0.00,,---,0.00,VWS V14.01,2013-05-27 00:41:00,
2013-05-26 20:46:00,72.0,52.3,29.91,NNE,22,3.1,3.1,50,0.00,,---,0.00,VWS V14.01,2013-05-27 00:46:00,
2013-05-26 20:51:00,71.8,52.2,29.91,ESE,112,1.6,2.2,50,0.00,,---,0.00,VWS V14.01,2013-05-27 00:51:00,
2013-05-26 20:56:00,71.8,52.7,29.94,East,90,0.0,2.7,51,0.00,,---,0.00,VWS V14.01,2013-05-27 00:56:00,
2013-05-26 21:01:00,71.2,51.7,29.94,NE,45,2.2,3.4,50,0.00,,---,0.00,VWS V14.01,2013-05-27 01:01:00,
2013-05-26 21:07:00,71.2,52.7,29.94,NNE,22,3.1,3.1,52,0.00,,---,0.00,VWS V14.01,2013-05-27 01:07:00,
2013-05-26 21:12:00,71.1,52.6,29.94,ENE,68,0.9,1.6,52,0.00,,---,0.00,VWS V14.01,2013-05-27 01:12:00,
2013-05-26 21:17:00,70.9,52.9,29.94,NW,315,1.3,4.0,53,0.00,,---,0.00,VWS V14.01,2013-05-27 01:17:00,
2013-05-26 21:22:00,70.9,52.9,29.94,ENE,68,1.1,1.3,53,0.00,,---,0.00,VWS V14.01,2013-05-27 01:22:00,
2013-05-26 21:27:00,70.7,53.3,29.94,NNE,22,0.0,2.7,54,0.00,,---,0.00,VWS V14.01,2013-05-27 01:27:00,
2013-05-26 21:32:00,70.3,52.9,29.94,NE,45,2.2,4.3,54,0.00,,---,0.00,VWS V14.01,2013-05-27 01:32:00,
2013-05-26 21:37:00,70.2,52.8,29.94,NE,45,1.6,1.6,54,0.00,,---,0.00,VWS V14.01,2013-05-27 01:37:00,
2013-05-26 21:42:00,70.0,53.1,29.94,ENE,68,1.3,1.6,55,0.00,,---,0.00,VWS V14.01,2013-05-27 01:42:00,
2013-05-26 21:47:00,69.8,52.9,29.94,ENE,68,0.0,0.0,55,0.00,,---,0.00,VWS V14.01,2013-05-27 01:47:00,
2013-05-26 21:52:00,69.6,53.2,29.94,ENE,68,0.0,1.3,56,0.00,,---,0.00,VWS V14.01,2013-05-27 01:52:00,
2013-05-26 21:57:00,69.6,53.7,29.94,ESE,112,0.0,1.3,57,0.00,,---,0.00,VWS V14.01,2013-05-27 01:57:00,
2013-05-26 22:02:00,69.3,53.4,29.94,NE,45,1.1,2.2,57,0.00,,---,0.00,VWS V14.01,2013-05-27 02:02:00,
2013-05-26 22:07:00,69.1,53.7,29.94,East,90,1.6,1.6,58,0.00,,---,0.00,VWS V14.01,2013-05-27 02:07:00,
2013-05-26 22:12:00,68.9,53.5,29.94,ENE,68,2.7,2.7,58,0.00,,---,0.00,VWS V14.01,2013-05-27 02:12:00,
2013-05-26 22:17:00,68.5,53.2,29.94,East,90,1.1,1.1,58,0.00,,---,0.00,VWS V14.01,2013-05-27 02:17:00,
2013-05-26 22:22:00,68.4,53.5,29.94,ENE,68,2.2,2.5,59,0.00,,---,0.00,VWS V14.01,2013-05-27 02:22:00,
2013-05-26 22:27:00,68.0,53.2,29.94,East,90,0.0,0.0,59,0.00,,---,0.00,VWS V14.01,2013-05-27 02:27:00,
2013-05-26 22:32:00,68.0,54.1,29.94,NE,45,0.0,2.2,61,0.00,,---,0.00,VWS V14.01,2013-05-27 02:32:00,
2013-05-26 22:37:00,68.0,54.1,29.94,ENE,68,0.0,0.0,61,0.00,,---,0.00,VWS V14.01,2013-05-27 02:37:00,
2013-05-26 22:42:00,68.2,54.7,29.94,East,90,2.7,2.7,62,0.00,,---,0.00,VWS V14.01,2013-05-27 02:42:00,
2013-05-26 22:47:00,68.4,54.8,29.94,NE,45,0.0,0.0,62,0.00,,---,0.00,VWS V14.01,2013-05-27 02:47:00,
2013-05-26 22:52:00,68.0,54.5,29.94,West,270,0.0,0.0,62,0.00,,---,0.00,VWS V14.01,2013-05-27 02:52:00,
2013-05-26 22:57:00,68.2,55.1,29.97,NE,45,0.0,0.0,63,0.00,,---,0.00,VWS V14.01,2013-05-27 02:57:00,
2013-05-26 23:02:00,68.2,55.1,29.97,ESE,112,0.0,0.0,63,0.00,,---,0.00,VWS V14.01,2013-05-27 03:02:00,
2013-05-26 23:07:00,68.2,55.1,29.97,NE,45,0.0,0.0,63,0.00,,---,0.00,VWS V14.01,2013-05-27 03:07:00,
2013-05-26 23:12:00,67.8,54.8,29.94,East,90,1.6,1.6,63,0.00,,---,0.00,VWS V14.01,2013-05-27 03:12:00,
2013-05-26 23:17:00,67.6,54.6,29.94,ENE,68,0.0,0.0,63,0.00,,---,0.00,VWS V14.01,2013-05-27 03:17:00,
2013-05-26 23:22:00,67.6,55.0,29.94,ENE,68,0.0,0.0,64,0.00,,---,0.00,VWS V14.01,2013-05-27 03:22:00,
2013-05-26 23:27:00,67.3,54.7,29.94,East,90,0.0,0.0,64,0.00,,---,0.00,VWS V14.01,2013-05-27 03:27:00,
2013-05-26 23:32:00,67.1,54.5,29.94,East,90,0.0,0.0,64,0.00,,---,0.00,VWS V14.01,2013-05-27 03:32:00,
2013-05-26 23:37:00,66.9,54.8,29.94,East,90,0.0,0.0,65,0.00,,---,0.00,VWS V14.01,2013-05-27 03:37:00,
2013-05-26 23:42:00,66.7,54.6,29.94,ENE,68,0.0,0.0,65,0.00,,---,0.00,VWS V14.01,2013-05-27 03:42:00,
2013-05-26 23:47:00,66.6,54.9,29.94,ENE,68,0.0,0.0,66,0.00,,---,0.00,VWS V14.01,2013-05-27 03:47:00,
2013-05-26 23:52:00,66.4,55.1,29.94,East,90,0.0,0.0,67,0.00,,---,0.00,VWS V14.01,2013-05-27 03:52:00,
2013-05-26 23:57:00,66.2,54.9,29.94,East,90,0.0,0.0,67,0.00,,---,0.00,VWS V14.01,2013-05-27 03:57:00,